Time;durP1;ratioP1;P1;durP2;ratioP2;P2;SDS_P1;SDS_P2;PMS_P1;PMS_P2;Temp;Humidity;BMP_temperature;BMP_pressure;BME280_temperature;BME280_humidity;BME280_pressure;Samples;Min_cycle;Max_cycle;Signal;HPM_P1;HPM_P2
2022/12/27 00:00:23;;;;;;;1.83;1.17;;;4.30;99.90;;;;;;4996399;28;20026;-65
2022/12/27 00:02:49;;;;;;;8.73;1.35;;;4.40;99.90;;;;;;4996302;28;20037;-64
2022/12/27 00:05:16;;;;;;;9.80;2.92;;;4.40;99.90;;;;;;4996538;28;20026;-70
2022/12/27 00:07:42;;;;;;;2.15;1.75;;;4.30;99.90;;;;;;4996590;28;20031;-64
2022/12/27 00:10:09;;;;;;;0.68;0.68;;;4.30;99.90;;;;;;4996274;28;20118;-65
2022/12/27 00:12:35;;;;;;;12.65;1.85;;;4.30;99.90;;;;;;4996372;28;20041;-68
2022/12/27 00:15:01;;;;;;;5.88;3.67;;;4.30;99.90;;;;;;4996183;28;20018;-66
2022/12/27 00:17:27;;;;;;;4.72;1.25;;;4.40;99.90;;;;;;4995983;28;20030;-65
2022/12/27 00:19:52;;;;;;;1.15;1.05;;;4.40;99.90;;;;;;4996261;28;20053;-64
2022/12/27 00:22:19;;;;;;;2.72;0.85;;;4.30;99.90;;;;;;4995858;28;20026;-65
2022/12/27 00:24:45;;;;;;;0.50;0.50;;;4.40;99.90;;;;;;4994735;28;20034;-64
2022/12/27 00:27:11;;;;;;;1.95;0.57;;;4.30;99.90;;;;;;4996306;28;20026;-64
2022/12/27 00:29:37;;;;;;;5.03;2.20;;;4.40;99.90;;;;;;4995625;28;20022;-64
2022/12/27 00:32:03;;;;;;;15.20;3.05;;;4.40;99.90;;;;;;4995834;28;20105;-69
2022/12/27 00:34:28;;;;;;;2.17;1.20;;;4.30;99.90;;;;;;4995698;28;20034;-64
2022/12/27 00:36:54;;;;;;;13.65;1.52;;;4.30;99.90;;;;;;4995892;28;20026;-70
2022/12/27 00:39:20;;;;;;;46.67;3.15;;;4.40;99.90;;;;;;5010907;28;20376;-64
2022/12/27 00:41:45;;;;;;;4.88;1.52;;;4.30;99.90;;;;;;4995817;28;20466;-69
2022/12/27 00:44:11;;;;;;;1.25;1.17;;;4.30;99.90;;;;;;4995653;28;20117;-69
2022/12/27 00:46:37;;;;;;;11.23;2.38;;;4.40;99.90;;;;;;4995693;28;20015;-64
2022/12/27 00:49:03;;;;;;;0.50;0.50;;;4.40;99.90;;;;;;4996080;28;20046;-64
2022/12/27 00:51:29;;;;;;;1.35;0.85;;;4.40;99.90;;;;;;4995806;28;20117;-65
2022/12/27 00:53:55;;;;;;;1.00;0.65;;;4.50;99.90;;;;;;4995762;28;20034;-64
2022/12/27 00:56:23;;;;;;;3.10;1.38;;;4.50;99.90;;;;;;4995691;28;20463;-64
2022/12/27 00:59:00;;;;;;;2.85;2.65;;;4.60;99.90;;;;;;4994922;28;20125;-65
2022/12/27 01:01:28;;;;;;;0.38;0.38;;;4.60;99.90;;;;;;4994956;28;20371;-64
2022/12/27 01:03:55;;;;;;;1.65;0.55;;;4.50;99.90;;;;;;4995019;28;20539;-64
2022/12/27 01:06:27;;;;;;;0.22;0.22;;;4.60;99.90;;;;;;4994016;28;20035;-64
2022/12/27 01:08:54;;;;;;;1.20;0.88;;;4.60;99.90;;;;;;4994914;28;20116;-63
2022/12/27 01:11:20;;;;;;;1.20;0.52;;;4.50;99.90;;;;;;4995136;28;20018;-64
2022/12/27 01:13:46;;;;;;;3.10;1.45;;;4.60;99.90;;;;;;4994764;28;20042;-64
2022/12/27 01:16:17;;;;;;;3.05;2.22;;;4.60;99.90;;;;;;4994802;28;20030;-64
2022/12/27 01:18:43;;;;;;;9.90;3.33;;;4.60;99.90;;;;;;5018914;23;20034;-65
2022/12/27 01:21:11;;;;;;;10.98;3.38;;;4.70;99.90;;;;;;4975035;28;20054;-64
2022/12/27 01:23:37;;;;;;;8.70;3.08;;;4.70;99.90;;;;;;4974382;28;20034;-64
2022/12/27 01:26:10;;;;;;;10.45;3.03;;;4.70;99.90;;;;;;4974231;28;20019;-64
2022/12/27 01:28:36;;;;;;;6.85;2.38;;;4.60;99.90;;;;;;4973696;28;20042;-64
2022/12/27 01:31:08;;;;;;;12.32;3.28;;;4.60;99.90;;;;;;4974061;28;20037;-70
2022/12/27 01:33:34;;;;;;;10.68;2.25;;;4.60;99.90;;;;;;4974160;28;20041;-64
2022/12/27 01:36:28;;;;;;;24.83;4.18;;;4.60;99.90;;;;;;4971296;28;20027;-64
2022/12/27 01:38:57;;;;;;;10.43;2.92;;;4.70;99.90;;;;;;4970631;28;20058;-69
2022/12/27 01:44:39;;;;;;;13.10;3.25;;;4.60;99.90;;;;;;4972289;28;20484;-64
2022/12/27 01:47:24;;;;;;;3.58;1.58;;;4.60;99.90;;;;;;4970759;28;20039;-63
2022/12/27 01:49:56;;;;;;;18.02;2.83;;;4.70;99.90;;;;;;4973074;28;20491;-64
2022/12/27 01:52:23;;;;;;;7.60;1.98;;;4.70;99.90;;;;;;4973854;28;20046;-64
2022/12/27 01:54:50;;;;;;;8.90;2.25;;;4.70;99.90;;;;;;4973490;28;20138;-64
2022/12/27 01:57:16;;;;;;;7.13;2.38;;;4.70;99.90;;;;;;4967866;28;20085;-63
2022/12/27 01:59:42;;;;;;;13.70;3.28;;;4.80;99.90;;;;;;4973071;28;20030;-69
2022/12/27 02:02:08;;;;;;;8.18;2.80;;;4.80;99.90;;;;;;4970335;28;20035;-64
2022/12/27 02:04:34;;;;;;;9.30;2.53;;;4.80;99.90;;;;;;4973512;28;20015;-64
2022/12/27 02:07:00;;;;;;;10.63;2.25;;;4.80;99.90;;;;;;4973205;28;20045;-64
2022/12/27 02:09:38;;;;;;;13.82;2.38;;;4.70;99.90;;;;;;4988345;28;20035;-64
2022/12/27 02:12:07;;;;;;;8.27;2.15;;;4.80;99.90;;;;;;4973094;28;20034;-64
2022/12/27 02:14:43;;;;;;;8.38;2.70;;;4.90;99.90;;;;;;4973625;28;20027;-68
2022/12/27 02:17:13;;;;;;;13.95;3.17;;;4.90;99.90;;;;;;4973894;28;20035;-69
2022/12/27 02:19:44;;;;;;;9.52;2.30;;;4.90;99.90;;;;;;4981137;28;20038;-64
2022/12/27 02:24:01;;;;;;;7.47;2.38;;;4.80;99.90;;;;;;4973322;28;20039;-64
2022/12/27 02:25:49;;;;;;;8.35;2.53;;;4.80;99.90;;;;;;4985128;28;20034;-68
2022/12/27 02:28:41;;;;;;;6.88;2.28;;;4.80;99.90;;;;;;4947401;28;20053;-64
2022/12/27 02:31:10;;;;;;;;;;;4.80;99.90;;;;;;4988994;28;20030;-64
2022/12/27 02:33:44;;;;;;;7.95;1.80;;;4.80;99.90;;;;;;4975092;28;20437;-64
2022/12/27 02:36:17;;;;;;;11.45;2.72;;;4.80;99.90;;;;;;4974849;28;20494;-64
2022/12/27 02:38:49;;;;;;;16.33;3.08;;;4.80;99.90;;;;;;4992222;28;20049;-66
2022/12/27 02:53:07;;;;;;;1.65;0.55;;;4.70;99.90;;;;;;4990826;28;20031;-64
2022/12/27 02:58:59;;;;;;;4.75;0.65;;;4.80;99.90;;;;;;4991831;28;20145;-64
2022/12/27 03:04:41;;;;;;;2.03;1.13;;;4.70;99.90;;;;;;4949800;28;20070;-71
2022/12/27 03:07:24;;;;;;;2.13;0.85;;;4.70;99.90;;;;;;4991365;28;20450;-67
2022/12/27 03:16:11;;;;;;;13.38;1.67;;;4.60;99.90;;;;;;4991352;28;20046;-65
2022/12/27 03:18:43;;;;;;;;;;;4.60;99.90;;;;;;4976194;28;20050;-64
2022/12/27 03:26:48;;;;;;;12.73;2.13;;;4.60;99.90;;;;;;4992430;28;20061;-73
2022/12/27 03:35:09;;;;;;;9.48;1.60;;;4.60;99.90;;;;;;4992235;28;20085;-65
2022/12/27 03:43:35;;;;;;;4.20;1.30;;;4.60;99.90;;;;;;4990013;28;20438;-64
2022/12/27 03:49:31;;;;;;;6.63;1.15;;;4.60;99.90;;;;;;4990133;28;20046;-68
2022/12/27 03:52:10;;;;;;;2.65;1.02;;;4.60;99.90;;;;;;4987172;28;20043;-65
2022/12/27 03:54:41;;;;;;;8.50;1.20;;;4.60;99.90;;;;;;4991487;28;20486;-69
2022/12/27 03:57:13;;;;;;;4.72;2.00;;;4.70;99.90;;;;;;4991405;28;20471;-65
2022/12/27 03:59:39;;;;;;;4.75;1.48;;;4.70;99.90;;;;;;4991183;28;20054;-69
2022/12/27 04:02:06;;;;;;;10.60;2.40;;;4.70;99.90;;;;;;4989227;28;20174;-65
2022/12/27 04:04:32;;;;;;;2.53;0.60;;;4.80;99.90;;;;;;4993027;28;20033;-64
2022/12/27 04:06:58;;;;;;;1.65;1.20;;;4.80;99.90;;;;;;4993687;28;20506;-64
2022/12/27 04:36:49;;;;;;;5.35;1.40;;;4.70;99.90;;;;;;4995636;28;20395;-65
2022/12/27 04:39:15;;;;;;;0.10;0.10;;;4.50;99.90;;;;;;4995631;28;20186;-70
2022/12/27 04:55:32;;;;;;;8.98;1.55;;;4.10;99.90;;;;;;4995565;28;20084;-64
2022/12/27 04:57:58;;;;;;;2.45;1.17;;;4.20;99.90;;;;;;4995430;28;20030;-64
2022/12/27 05:03:17;;;;;;;8.50;1.90;;;4.20;99.90;;;;;;4994942;28;20077;-64
2022/12/27 05:05:44;;;;;;;6.80;1.17;;;4.10;99.90;;;;;;4977502;28;20436;-64
2022/12/27 05:13:59;;;;;;;18.10;1.65;;;4.20;99.90;;;;;;4994848;28;20447;-64
2022/12/27 05:16:30;;;;;;;10.27;2.92;;;4.30;99.90;;;;;;4976856;28;20069;-64
2022/12/27 05:18:56;;;;;;;7.32;1.92;;;4.40;99.90;;;;;;4977329;28;20039;-71
2022/12/27 05:21:23;;;;;;;0.25;0.25;;;4.30;99.90;;;;;;4994959;28;20364;-64
2022/12/27 05:26:34;;;;;;;7.55;1.42;;;4.20;99.90;;;;;;4995150;28;20030;-64
2022/12/27 05:29:01;;;;;;;4.88;1.48;;;4.10;99.90;;;;;;4994827;28;20475;-70
2022/12/27 05:31:27;;;;;;;2.08;1.00;;;4.10;99.90;;;;;;4995068;28;20033;-64
2022/12/27 05:33:54;;;;;;;6.93;1.48;;;4.00;99.90;;;;;;4994933;28;20905;-64
2022/12/27 05:36:20;;;;;;;5.32;1.52;;;4.00;99.90;;;;;;4994199;28;20026;-64
2022/12/27 05:38:46;;;;;;;0.43;0.43;;;4.10;99.90;;;;;;4994675;28;20034;-64
2022/12/27 05:41:12;;;;;;;7.43;1.90;;;4.20;99.90;;;;;;4977419;28;20064;-70
2022/12/27 05:43:39;;;;;;;6.25;5.78;;;4.10;99.90;;;;;;4977111;28;20169;-70
2022/12/27 05:46:10;;;;;;;1.70;0.80;;;4.00;99.90;;;;;;4994678;28;20030;-64
2022/12/27 05:48:36;;;;;;;1.60;0.52;;;4.10;99.90;;;;;;4994066;28;20035;-64
2022/12/27 05:51:07;;;;;;;1.58;0.70;;;4.10;99.90;;;;;;4992607;28;20042;-64
2022/12/27 05:53:34;;;;;;;1.55;0.43;;;4.20;99.90;;;;;;4992914;28;20117;-66
2022/12/27 05:56:00;;;;;;;10.30;2.17;;;4.20;99.90;;;;;;4992944;28;20023;-67
2022/12/27 05:58:26;;;;;;;2.97;1.83;;;4.10;99.90;;;;;;4993101;28;20038;-65
2022/12/27 06:00:52;;;;;;;11.18;1.58;;;4.00;99.90;;;;;;4992758;28;20042;-68
2022/12/27 06:03:18;;;;;;;12.43;2.10;;;3.90;99.90;;;;;;4993253;28;20475;-66
2022/12/27 06:05:43;;;;;;;3.58;1.38;;;4.00;99.90;;;;;;4992409;28;20062;-64
2022/12/27 06:08:09;;;;;;;3.10;1.90;;;4.20;99.90;;;;;;4993035;28;20026;-65
2022/12/27 06:10:36;;;;;;;0.95;0.82;;;4.00;99.90;;;;;;4992862;28;20491;-65
2022/12/27 06:13:02;;;;;;;2.75;0.75;;;4.00;99.90;;;;;;4992690;28;20395;-64
2022/12/27 06:15:28;;;;;;;3.00;0.75;;;3.90;99.90;;;;;;4992955;28;20038;-73
2022/12/27 06:17:57;;;;;;;3.42;0.68;;;3.90;99.90;;;;;;4992863;28;20479;-65
2022/12/27 06:20:22;;;;;;;4.90;1.90;;;3.80;99.90;;;;;;4992345;28;20045;-64
2022/12/27 06:22:48;;;;;;;7.95;1.00;;;3.90;99.90;;;;;;4992689;28;20027;-71
2022/12/27 06:25:14;;;;;;;9.95;2.15;;;3.80;99.90;;;;;;4992437;28;20112;-64
2022/12/27 06:27:40;;;;;;;15.15;2.78;;;3.80;99.90;;;;;;4992551;28;20360;-64
2022/12/27 06:30:06;;;;;;;4.70;0.75;;;3.80;99.90;;;;;;4992177;28;20026;-64
2022/12/27 06:32:34;;;;;;;9.70;1.10;;;3.80;99.90;;;;;;4992799;28;20062;-64
2022/12/27 06:35:00;;;;;;;4.43;1.20;;;3.90;99.90;;;;;;4989802;28;20014;-68
2022/12/27 06:37:25;;;;;;;0.65;0.40;;;3.80;99.90;;;;;;4973647;28;20022;-71
2022/12/27 06:39:51;;;;;;;0.38;0.30;;;3.80;99.90;;;;;;4993462;28;20038;-63
2022/12/27 06:42:17;;;;;;;26.13;1.23;;;3.70;99.90;;;;;;4992734;28;20364;-64
2022/12/27 06:44:42;;;;;;;5.45;1.25;;;3.90;99.90;;;;;;4992111;28;20470;-64
2022/12/27 06:47:11;;;;;;;0.30;0.30;;;3.80;99.90;;;;;;4993859;28;20506;-64
2022/12/27 06:49:37;;;;;;;0.55;0.55;;;3.70;99.90;;;;;;4993088;28;20061;-64
2022/12/27 06:52:03;;;;;;;16.27;1.85;;;3.80;99.90;;;;;;4993350;28;20054;-64
2022/12/27 06:54:29;;;;;;;4.53;0.60;;;3.80;99.90;;;;;;4992913;28;20026;-64
2022/12/27 06:56:55;;;;;;;10.07;1.65;;;3.80;99.90;;;;;;4993313;28;20109;-64
2022/12/27 06:59:22;;;;;;;1.70;0.93;;;3.80;99.90;;;;;;4991884;28;20034;-64
2022/12/27 07:01:48;;;;;;;2.55;1.27;;;3.80;99.90;;;;;;4992793;28;20464;-68
2022/12/27 07:04:14;;;;;;;7.90;2.30;;;3.90;99.90;;;;;;4993213;28;20422;-66
2022/12/27 07:06:39;;;;;;;9.82;2.42;;;3.90;99.90;;;;;;4993055;28;20049;-64
2022/12/27 07:09:05;;;;;;;2.45;1.42;;;3.90;99.90;;;;;;4992608;28;20034;-65
2022/12/27 07:11:35;;;;;;;4.45;2.05;;;3.90;99.90;;;;;;4993291;28;20451;-64
2022/12/27 07:14:02;;;;;;;3.58;2.13;;;3.90;99.90;;;;;;4993111;28;20663;-64
2022/12/27 07:16:29;;;;;;;4.15;2.90;;;3.80;99.90;;;;;;4992936;28;20151;-71
2022/12/27 07:18:57;;;;;;;6.00;2.38;;;3.90;99.90;;;;;;4992861;28;20042;-64
2022/12/27 07:21:25;;;;;;;11.43;2.90;;;3.90;99.90;;;;;;4993305;28;20037;-64
2022/12/27 07:23:53;;;;;;;14.05;3.13;;;3.90;99.90;;;;;;4987070;28;20113;-65
2022/12/27 07:26:28;;;;;;;5.95;2.45;;;3.90;99.90;;;;;;4986648;28;20038;-65
2022/12/27 07:28:56;;;;;;;8.65;2.03;;;3.90;99.90;;;;;;4991840;28;20130;-70
2022/12/27 07:31:25;;;;;;;8.35;2.38;;;3.80;99.90;;;;;;4992507;28;20027;-65
2022/12/27 07:33:51;;;;;;;9.57;3.17;;;3.80;99.90;;;;;;4989907;28;20041;-65
2022/12/27 07:36:20;;;;;;;12.60;2.83;;;4.00;99.90;;;;;;4992541;28;20029;-66
2022/12/27 07:38:47;;;;;;;7.68;2.00;;;3.90;99.90;;;;;;4988880;28;20583;-66
2022/12/27 07:41:13;;;;;;;5.13;1.70;;;3.90;99.90;;;;;;4995736;28;20471;-65
2022/12/27 07:43:39;;;;;;;7.72;1.75;;;4.00;99.90;;;;;;4995171;28;20106;-65
2022/12/27 07:46:09;;;;;;;12.68;2.22;;;3.90;99.90;;;;;;4995583;28;20038;-64
2022/12/27 07:51:08;;;;;;;10.13;2.28;;;4.10;99.90;;;;;;4993854;28;20053;-66
2022/12/27 07:53:34;;;;;;;8.32;1.50;;;4.00;99.90;;;;;;4994444;28;20395;-67
2022/12/27 07:56:27;;;;;;;7.93;2.58;;;3.90;99.90;;;;;;4996319;28;20406;-66
2022/12/27 07:58:54;;;;;;;10.10;3.20;;;3.90;99.90;;;;;;4992776;28;20120;-67
2022/12/27 08:01:22;;;;;;;13.73;3.10;;;4.00;99.90;;;;;;4977605;28;20506;-67
2022/12/27 08:03:48;;;;;;;9.30;2.85;;;3.80;99.90;;;;;;4980961;28;20416;-66
2022/12/27 08:06:31;;;;;;;11.10;2.17;;;3.90;99.90;;;;;;4977656;28;20038;-68
2022/12/27 08:09:01;;;;;;;3.58;1.75;;;4.00;99.90;;;;;;4991540;28;20496;-65
2022/12/27 08:11:27;;;;;;;16.00;2.75;;;4.10;99.90;;;;;;4979770;28;20026;-67
2022/12/27 08:13:53;;;;;;;3.80;2.25;;;4.10;99.90;;;;;;4977434;28;20070;-65
2022/12/27 08:16:22;;;;;;;13.60;3.58;;;4.10;99.90;;;;;;4980517;28;20379;-65
2022/12/27 08:18:49;;;;;;;14.35;2.63;;;4.00;99.90;;;;;;4980887;28;20049;-66
2022/12/27 08:21:15;;;;;;;16.85;2.45;;;4.10;99.90;;;;;;4982022;28;20083;-67
2022/12/27 08:23:41;;;;;;;1.33;0.75;;;4.00;99.90;;;;;;4963907;28;20435;-65
2022/12/27 08:26:07;;;;;;;6.93;1.98;;;4.00;99.90;;;;;;4976141;28;20030;-66
2022/12/27 08:28:34;;;;;;;2.72;2.10;;;3.90;99.90;;;;;;4992380;28;20032;-66
2022/12/27 08:31:00;;;;;;;7.47;2.08;;;4.10;99.90;;;;;;4993635;28;20075;-66
2022/12/27 08:33:27;;;;;;;5.10;2.60;;;4.00;99.90;;;;;;4973028;28;20495;-67
2022/12/27 08:35:53;;;;;;;7.13;0.80;;;4.00;99.90;;;;;;4994324;28;20490;-65
2022/12/27 08:38:18;;;;;;;2.38;1.52;;;4.00;99.90;;;;;;4995647;28;20084;-65
2022/12/27 08:40:45;;;;;;;3.88;1.20;;;4.10;99.90;;;;;;4995442;28;20419;-64
2022/12/27 08:43:11;;;;;;;2.00;1.05;;;4.20;99.90;;;;;;4987513;28;20486;-65
2022/12/27 08:45:38;;;;;;;1.80;1.35;;;4.30;99.90;;;;;;4995536;28;20058;-65
2022/12/27 08:48:05;;;;;;;3.58;1.17;;;4.50;99.90;;;;;;4969317;28;20447;-65
2022/12/27 08:50:31;;;;;;;5.35;2.88;;;4.60;99.90;;;;;;4993664;28;20034;-65
2022/12/27 08:52:58;;;;;;;15.60;3.67;;;4.60;99.90;;;;;;4969060;28;20467;-65
2022/12/27 08:55:26;;;;;;;3.67;2.50;;;4.60;99.90;;;;;;4995641;28;20054;-65
2022/12/27 08:57:59;;;;;;;5.35;2.80;;;4.60;99.90;;;;;;4994667;28;20085;-65
2022/12/27 09:00:26;;;;;;;4.22;1.52;;;4.70;99.90;;;;;;4994924;28;20037;-67
2022/12/27 09:02:52;;;;;;;1.85;1.52;;;4.80;99.90;;;;;;4992323;28;20536;-66
2022/12/27 09:05:19;;;;;;;1.50;1.10;;;5.00;99.90;;;;;;4995265;28;20030;-66
2022/12/27 09:07:46;;;;;;;5.00;1.25;;;4.90;99.90;;;;;;4993446;28;20463;-65
2022/12/27 09:10:12;;;;;;;6.00;2.08;;;5.00;99.90;;;;;;4994299;28;20053;-66
2022/12/27 09:12:38;;;;;;;8.25;1.48;;;5.20;99.90;;;;;;4994424;28;20499;-67
2022/12/27 09:15:05;;;;;;;1.80;0.88;;;5.40;99.90;;;;;;4995146;28;20057;-65
2022/12/27 09:17:31;;;;;;;5.38;2.00;;;5.40;99.90;;;;;;4995323;28;20061;-65
2022/12/27 09:19:57;;;;;;;2.30;0.80;;;5.60;99.90;;;;;;4980209;28;20050;-65
2022/12/27 09:22:23;;;;;;;18.70;2.30;;;5.70;99.90;;;;;;4986120;28;20107;-66
2022/12/27 09:24:49;;;;;;;2.83;1.52;;;6.00;99.90;;;;;;4992260;28;20073;-65
2022/12/27 09:27:15;;;;;;;1.08;0.98;;;5.90;99.90;;;;;;4994516;28;20034;-66
2022/12/27 09:29:40;;;;;;;3.47;2.22;;;6.20;99.90;;;;;;4994746;28;20026;-66
2022/12/27 09:32:06;;;;;;;6.07;1.40;;;6.00;99.90;;;;;;4993772;28;20459;-65
2022/12/27 09:34:32;;;;;;;2.72;1.52;;;6.00;99.90;;;;;;4994897;28;20026;-65
2022/12/27 09:36:58;;;;;;;4.78;2.00;;;6.00;99.90;;;;;;4994774;28;20073;-66
2022/12/27 09:39:24;;;;;;;5.47;1.55;;;6.40;99.90;;;;;;4994822;28;20081;-65
2022/12/27 09:42:23;;;;;;;5.97;2.22;;;6.60;99.90;;;;;;4977177;28;20033;-66
2022/12/27 09:44:58;;;;;;;1.75;0.98;;;6.30;99.90;;;;;;4994745;28;20026;-66
2022/12/27 09:47:33;;;;;;;3.78;1.42;;;6.40;99.90;;;;;;4994674;28;20053;-65
2022/12/27 09:50:26;;;;;;;16.80;2.65;;;6.50;99.90;;;;;;4994453;28;20493;-66
2022/12/27 09:52:58;;;;;;;0.98;0.88;;;6.80;99.90;;;;;;4994232;28;20074;-66
2022/12/27 09:55:38;;;;;;;3.72;1.05;;;6.90;99.90;;;;;;4994487;28;20077;-66
2022/12/27 09:58:23;;;;;;;0.90;0.55;;;6.50;99.90;;;;;;4994383;28;20105;-66
2022/12/27 10:00:50;;;;;;;0.80;0.80;;;6.60;99.90;;;;;;4994189;28;20545;-66
2022/12/27 10:03:19;;;;;;;3.17;1.77;;;6.40;99.90;;;;;;4994391;28;20025;-66
2022/12/27 10:05:50;;;;;;;0.88;0.68;;;6.10;99.90;;;;;;4976717;28;20022;-65
2022/12/27 10:08:36;;;;;;;5.25;1.30;;;6.30;99.90;;;;;;4994288;28;20106;-66
2022/12/27 10:11:37;;;;;;;0.32;0.32;;;6.60;99.90;;;;;;4960338;28;20538;-67
2022/12/27 10:14:37;;;;;;;4.32;0.80;;;7.00;99.90;;;;;;4994201;28;20032;-66
2022/12/27 10:17:11;;;;;;;8.70;1.38;;;7.30;99.90;;;;;;4993909;28;20037;-65
2022/12/27 10:19:47;;;;;;;3.63;1.52;;;7.50;99.90;;;;;;4976588;28;20057;-66
2022/12/27 10:22:22;;;;;;;3.70;1.92;;;7.40;99.90;;;;;;4994148;28;20105;-65
2022/12/27 10:24:53;;;;;;;10.40;2.08;;;8.00;99.90;;;;;;4993684;28;20042;-66
2022/12/27 10:27:29;;;;;;;2.92;2.08;;;8.70;99.90;;;;;;4976705;28;20104;-66
2022/12/27 10:29:58;;;;;;;5.10;1.10;;;8.60;99.90;;;;;;4994324;28;20046;-66
2022/12/27 10:32:25;;;;;;;2.50;1.17;;;7.80;99.90;;;;;;4993944;28;20011;-66
2022/12/27 10:34:58;;;;;;;0.95;0.88;;;7.30;99.90;;;;;;4994149;28;20037;-67
2022/12/27 10:37:24;;;;;;;3.90;1.35;;;7.30;99.90;;;;;;4993639;28;20029;-67
2022/12/27 10:39:50;;;;;;;0.60;0.60;;;7.30;99.90;;;;;;4993526;28;20042;-66
2022/12/27 10:42:38;;;;;;;1.67;0.93;;;7.30;99.90;;;;;;4993734;28;20505;-68
2022/12/27 10:45:35;;;;;;;6.88;1.05;;;7.20;99.90;;;;;;4993782;28;20100;-66
2022/12/27 10:48:19;;;;;;;7.80;1.92;;;7.00;99.90;;;;;;4993781;28;20042;-67
2022/12/27 10:50:54;;;;;;;3.50;1.35;;;7.00;99.90;;;;;;4993227;28;20038;-66
2022/12/27 10:53:47;;;;;;;0.45;0.45;;;7.10;99.90;;;;;;4993553;28;20038;-65
2022/12/27 10:56:28;;;;;;;4.15;1.50;;;7.50;99.90;;;;;;4962649;28;20073;-67
2022/12/27 10:59:09;;;;;;;19.48;7.60;;;7.60;99.90;;;;;;4993596;28;20030;-68
2022/12/27 11:01:34;;;;;;;7.75;1.35;;;8.10;99.90;;;;;;4993710;28;20030;-68
2022/12/27 11:04:15;;;;;;;5.38;2.03;;;8.10;99.90;;;;;;4993196;28;20037;-66
2022/12/27 11:06:42;;;;;;;3.60;1.92;;;8.20;99.90;;;;;;4993439;28;20026;-67
2022/12/27 11:09:34;;;;;;;6.40;1.80;;;8.10;99.90;;;;;;5007460;28;20030;-65
2022/12/27 11:12:27;;;;;;;4.18;1.60;;;7.60;99.90;;;;;;5003363;28;20038;-66
2022/12/27 11:15:17;;;;;;;3.92;0.65;;;7.70;99.90;;;;;;4992459;28;20038;-66
2022/12/27 11:17:47;;;;;;;6.32;1.00;;;7.80;99.90;;;;;;4993079;28;20041;-67
2022/12/27 11:20:36;;;;;;;1.98;0.95;;;7.60;99.90;;;;;;4993306;28;20121;-66
2022/12/27 11:23:08;;;;;;;1.67;1.10;;;7.50;99.90;;;;;;4992869;28;20053;-67
2022/12/27 11:25:45;;;;;;;4.30;1.70;;;7.60;99.90;;;;;;4992951;28;20110;-65
2022/12/27 11:28:21;;;;;;;0.35;0.30;;;7.40;99.90;;;;;;4993145;28;20093;-66
2022/12/27 11:31:07;;;;;;;0.20;0.17;;;7.50;99.90;;;;;;4993044;28;20062;-65
2022/12/27 11:33:36;;;;;;;4.78;2.38;;;7.50;99.90;;;;;;4992830;28;20030;-65
2022/12/27 11:36:03;;;;;;;7.57;0.65;;;7.40;99.90;;;;;;4993415;28;20025;-68
2022/12/27 11:38:32;;;;;;;9.50;1.23;;;7.30;99.90;;;;;;4992552;28;20036;-66
2022/12/27 11:41:04;;;;;;;0.57;0.57;;;7.40;99.90;;;;;;4993226;28;20065;-65
2022/12/27 11:43:38;;;;;;;9.77;1.67;;;7.40;99.90;;;;;;4975292;28;20121;-66
2022/12/27 11:46:12;;;;;;;4.88;2.40;;;7.40;99.90;;;;;;4993141;28;20109;-66
2022/12/27 11:48:45;;;;;;;0.52;0.38;;;7.50;99.90;;;;;;4992762;28;20092;-66
2022/12/27 11:51:34;;;;;;;5.72;1.10;;;7.50;99.90;;;;;;4975692;28;20030;-66
2022/12/27 11:54:10;;;;;;;1.65;1.30;;;7.60;99.90;;;;;;4992470;28;20037;-66
2022/12/27 11:56:51;;;;;;;0.93;0.52;;;7.50;99.90;;;;;;4992969;28;20025;-65
2022/12/27 11:59:17;;;;;;;6.50;1.98;;;7.60;99.90;;;;;;4992861;28;20061;-65
2022/12/27 12:02:01;;;;;;;4.68;0.68;;;7.70;99.90;;;;;;4992985;28;20066;-66
2022/12/27 12:04:45;;;;;;;1.70;1.08;;;7.70;99.90;;;;;;4992595;28;20030;-65
2022/12/27 12:07:26;;;;;;;9.05;1.23;;;7.70;99.90;;;;;;4992604;28;20034;-66
2022/12/27 12:10:05;;;;;;;7.20;1.02;;;7.60;99.90;;;;;;4992514;28;20034;-65
2022/12/27 12:13:01;;;;;;;3.63;1.48;;;7.60;99.90;;;;;;4991331;28;20041;-65
2022/12/27 12:15:46;;;;;;;2.72;1.05;;;7.70;99.90;;;;;;4995077;28;20027;-65
2022/12/27 12:18:26;;;;;;;3.10;0.82;;;7.80;99.90;;;;;;4991857;28;20030;-65
2022/12/27 12:21:14;;;;;;;1.20;0.73;;;7.90;99.90;;;;;;4992190;28;20038;-66
2022/12/27 12:24:06;;;;;;;14.10;2.63;;;7.90;99.90;;;;;;4992295;28;20037;-65
2022/12/27 12:27:09;;;;;;;1.90;1.60;;;8.00;99.90;;;;;;4995182;28;20022;-67
2022/12/27 12:29:56;;;;;;;0.47;0.47;;;7.60;99.90;;;;;;4986389;28;20129;-66
2022/12/27 12:32:41;;;;;;;6.57;3.35;;;7.60;99.90;;;;;;4980143;28;20030;-66
2022/12/27 12:35:35;;;;;;;6.63;0.68;;;7.60;99.90;;;;;;4980210;28;20027;-66
2022/12/27 12:38:10;;;;;;;5.22;1.33;;;7.60;99.90;;;;;;4976784;28;20114;-67
2022/12/27 12:40:57;;;;;;;2.08;1.30;;;7.70;99.90;;;;;;4977942;28;20390;-68
2022/12/27 12:43:47;;;;;;;6.53;1.08;;;7.80;99.90;;;;;;4977245;28;20375;-66
2022/12/27 12:46:23;;;;;;;4.95;1.63;;;7.80;99.90;;;;;;4976790;28;20041;-66
2022/12/27 12:48:57;;;;;;;5.13;1.88;;;7.80;99.90;;;;;;4977026;28;20035;-66
2022/12/27 12:51:34;;;;;;;4.47;2.28;;;7.90;99.90;;;;;;4958324;28;20038;-65
2022/12/27 12:54:15;;;;;;;8.23;2.30;;;7.70;99.90;;;;;;4975008;28;20034;-66
2022/12/27 12:57:03;;;;;;;14.25;3.42;;;7.90;99.90;;;;;;4977397;28;20037;-65
2022/12/27 12:59:45;;;;;;;4.68;1.88;;;7.80;99.90;;;;;;4977642;28;20084;-66
2022/12/27 13:02:26;;;;;;;;;;;8.00;99.90;;;;;;4986447;28;20050;-66
2022/12/27 13:05:07;;;;;;;9.82;2.25;;;8.30;99.90;;;;;;4976027;28;19917;-66
2022/12/27 13:08:01;;;;;;;5.03;2.05;;;8.40;99.90;;;;;;4977352;28;20062;-66
2022/12/27 13:10:42;;;;;;;6.40;1.90;;;8.30;99.90;;;;;;4991577;28;20044;-67
2022/12/27 13:13:24;;;;;;;8.20;2.95;;;8.20;99.90;;;;;;4992966;28;20030;-65
2022/12/27 13:15:58;;;;;;;12.10;2.45;;;8.30;99.90;;;;;;4994436;28;20041;-67
2022/12/27 13:18:37;;;;;;;7.55;0.65;;;8.30;99.90;;;;;;4994360;28;20026;-65
2022/12/27 13:21:34;;;;;;;4.15;2.58;;;8.20;99.90;;;;;;4992111;28;20697;-66
2022/12/27 13:24:15;;;;;;;11.30;1.85;;;8.30;99.90;;;;;;4985167;28;20483;-65
2022/12/27 13:27:11;;;;;;;6.38;1.17;;;8.50;99.90;;;;;;4994676;28;20101;-66
2022/12/27 13:29:45;;;;;;;1.08;0.75;;;8.50;99.90;;;;;;4971222;28;20138;-66
2022/12/27 13:32:17;;;;;;;1.10;1.00;;;8.50;99.90;;;;;;4993492;28;20026;-65
2022/12/27 13:35:05;;;;;;;3.63;1.77;;;8.40;99.90;;;;;;4994010;28;20042;-67
2022/12/27 13:37:54;;;;;;;3.75;1.38;;;8.30;99.90;;;;;;4981497;28;20472;-66
2022/12/27 13:41:06;;;;;;;0.65;0.65;;;8.40;99.90;;;;;;4992208;28;20161;-66
2022/12/27 13:43:49;;;;;;;1.83;1.23;;;8.80;99.90;;;;;;4993832;28;20030;-66
2022/12/27 13:46:46;;;;;;;0.15;0.15;;;9.00;99.90;;;;;;4993719;28;20290;-67
2022/12/27 13:49:42;;;;;;;1.60;0.75;;;9.70;99.90;;;;;;4988627;28;20056;-66
2022/12/27 13:52:34;;;;;;;8.50;1.35;;;10.30;99.90;;;;;;4976610;28;20031;-67
2022/12/27 13:55:19;;;;;;;0.57;0.57;;;10.70;99.90;;;;;;4984458;28;20022;-67
2022/12/27 13:58:15;;;;;;;2.20;1.05;;;11.30;99.90;;;;;;4980028;28;20037;-66
2022/12/27 14:00:49;;;;;;;2.30;1.10;;;11.00;99.90;;;;;;4994258;28;20500;-66
2022/12/27 14:03:26;;;;;;;4.28;1.20;;;11.40;99.90;;;;;;4982358;28;20027;-66
2022/12/27 14:06:17;;;;;;;5.53;1.33;;;11.00;99.90;;;;;;4994147;28;20027;-66
2022/12/27 14:08:58;;;;;;;1.05;0.63;;;11.00;99.90;;;;;;4994378;28;20035;-66
2022/12/27 14:12:03;;;;;;;2.78;1.63;;;10.90;99.90;;;;;;4994128;28;20029;-66
2022/12/27 14:14:30;;;;;;;4.18;1.25;;;10.20;99.90;;;;;;4993886;28;20454;-66
2022/12/27 14:16:56;;;;;;;1.35;0.68;;;10.30;99.90;;;;;;4976118;28;20041;-65
2022/12/27 14:19:42;;;;;;;8.95;2.03;;;10.50;99.90;;;;;;5019211;23;20041;-65
2022/12/27 14:22:33;;;;;;;6.22;1.38;;;11.00;99.90;;;;;;5022843;28;20460;-69
2022/12/27 14:24:58;;;;;;;10.95;2.42;;;10.90;99.90;;;;;;5033143;28;20462;-71
2022/12/27 14:27:24;;;;;;;8.02;1.48;;;10.80;99.90;;;;;;5032061;28;20029;-70
2022/12/27 14:30:24;;;;;;;2.75;1.50;;;10.80;99.90;;;;;;5032899;28;20025;-68
2022/12/27 14:33:23;;;;;;;5.45;1.42;;;9.80;99.90;;;;;;5033468;28;20410;-72
2022/12/27 14:36:01;;;;;;;15.13;1.27;;;9.60;99.90;;;;;;5032902;28;20032;-71
2022/12/27 14:38:36;;;;;;;1.60;1.05;;;9.30;99.90;;;;;;5033262;28;20374;-70
2022/12/27 14:41:05;;;;;;;5.43;1.92;;;9.10;99.90;;;;;;5033013;28;20038;-71
2022/12/27 14:43:52;;;;;;;1.38;1.00;;;9.30;99.90;;;;;;5033126;28;20025;-70
2022/12/27 14:46:46;;;;;;;0.90;0.88;;;9.10;99.90;;;;;;5032812;28;20033;-69
2022/12/27 14:49:39;;;;;;;1.55;1.38;;;9.10;99.90;;;;;;5032743;28;20033;-71
2022/12/27 14:52:29;;;;;;;3.45;0.93;;;9.00;99.90;;;;;;5031976;28;20378;-71
2022/12/27 14:55:25;;;;;;;0.20;0.20;;;8.90;99.90;;;;;;5033017;28;20033;-68
2022/12/27 14:58:21;;;;;;;1.33;1.23;;;8.90;99.90;;;;;;5032164;28;20025;-68
2022/12/27 15:00:52;;;;;;;2.53;0.85;;;8.60;99.90;;;;;;5030691;28;20057;-69
2022/12/27 15:03:24;;;;;;;0.68;0.68;;;8.50;99.90;;;;;;5032325;28;20026;-67
2022/12/27 15:06:02;;;;;;;12.95;1.70;;;8.50;99.90;;;;;;5032328;28;20457;-70
2022/12/27 15:08:37;;;;;;;2.03;0.90;;;8.30;99.90;;;;;;5022861;28;20045;-68
2022/12/27 15:11:21;;;;;;;5.85;1.23;;;8.30;99.90;;;;;;5028436;28;20497;-70